sensor_id;sensor_type;location;lat;lon;timestamp;temperature;humidity
12156;DHT22;6141;49.092;8.516;2024-02-21T00:00:20;8.40;47.60
12156;DHT22;6141;49.092;8.516;2024-02-21T00:02:48;8.40;47.30
12156;DHT22;6141;49.092;8.516;2024-02-21T00:05:17;8.40;47.10
12156;DHT22;6141;49.092;8.516;2024-02-21T00:07:45;8.70;47.20
12156;DHT22;6141;49.092;8.516;2024-02-21T00:10:13;8.50;46.40
12156;DHT22;6141;49.092;8.516;2024-02-21T00:12:42;8.50;46.60
12156;DHT22;6141;49.092;8.516;2024-02-21T00:15:11;8.50;46.50
12156;DHT22;6141;49.092;8.516;2024-02-21T00:17:40;8.50;46.40
12156;DHT22;6141;49.092;8.516;2024-02-21T00:20:08;8.50;46.40
12156;DHT22;6141;49.092;8.516;2024-02-21T00:22:37;8.40;46.20
12156;DHT22;6141;49.092;8.516;2024-02-21T00:25:06;8.50;46.80
12156;DHT22;6141;49.092;8.516;2024-02-21T00:27:35;8.60;46.50
12156;DHT22;6141;49.092;8.516;2024-02-21T00:30:04;8.60;45.60
12156;DHT22;6141;49.092;8.516;2024-02-21T00:32:34;8.70;45.20
12156;DHT22;6141;49.092;8.516;2024-02-21T00:35:02;8.70;44.90
12156;DHT22;6141;49.092;8.516;2024-02-21T00:37:31;8.70;44.50
12156;DHT22;6141;49.092;8.516;2024-02-21T00:39:59;8.80;44.60
12156;DHT22;6141;49.092;8.516;2024-02-21T00:42:28;8.80;44.60
12156;DHT22;6141;49.092;8.516;2024-02-21T00:44:56;8.70;44.50
12156;DHT22;6141;49.092;8.516;2024-02-21T00:47:24;8.60;45.90
12156;DHT22;6141;49.092;8.516;2024-02-21T00:49:53;8.50;46.70
12156;DHT22;6141;49.092;8.516;2024-02-21T00:52:22;8.50;47.60
12156;DHT22;6141;49.092;8.516;2024-02-21T00:54:50;8.50;49.00
12156;DHT22;6141;49.092;8.516;2024-02-21T00:57:21;8.50;48.60
12156;DHT22;6141;49.092;8.516;2024-02-21T00:59:50;8.30;49.00
12156;DHT22;6141;49.092;8.516;2024-02-21T01:02:18;8.30;50.20
12156;DHT22;6141;49.092;8.516;2024-02-21T01:04:46;8.30;50.20
12156;DHT22;6141;49.092;8.516;2024-02-21T01:07:16;8.30;50.20
12156;DHT22;6141;49.092;8.516;2024-02-21T01:09:44;8.30;51.20
12156;DHT22;6141;49.092;8.516;2024-02-21T01:12:12;8.30;50.90
12156;DHT22;6141;49.092;8.516;2024-02-21T01:14:40;8.30;51.90
12156;DHT22;6141;49.092;8.516;2024-02-21T01:17:09;8.30;53.80
12156;DHT22;6141;49.092;8.516;2024-02-21T01:19:37;8.30;56.00
12156;DHT22;6141;49.092;8.516;2024-02-21T01:22:05;8.30;54.20
12156;DHT22;6141;49.092;8.516;2024-02-21T01:24:34;8.20;57.60
12156;DHT22;6141;49.092;8.516;2024-02-21T01:27:03;8.10;57.60
12156;DHT22;6141;49.092;8.516;2024-02-21T01:29:31;8.00;59.10
12156;DHT22;6141;49.092;8.516;2024-02-21T01:31:59;8.00;60.10
12156;DHT22;6141;49.092;8.516;2024-02-21T01:34:27;8.00;61.40
12156;DHT22;6141;49.092;8.516;2024-02-21T01:36:58;7.90;62.10
12156;DHT22;6141;49.092;8.516;2024-02-21T01:39:31;7.90;62.40
12156;DHT22;6141;49.092;8.516;2024-02-21T01:42:00;7.80;63.50
12156;DHT22;6141;49.092;8.516;2024-02-21T01:44:29;7.90;63.20
12156;DHT22;6141;49.092;8.516;2024-02-21T01:46:57;7.90;62.60
12156;DHT22;6141;49.092;8.516;2024-02-21T01:49:26;7.90;62.40
12156;DHT22;6141;49.092;8.516;2024-02-21T01:51:54;7.90;62.50
12156;DHT22;6141;49.092;8.516;2024-02-21T01:54:23;7.90;63.60
12156;DHT22;6141;49.092;8.516;2024-02-21T01:56:52;7.80;62.70
12156;DHT22;6141;49.092;8.516;2024-02-21T01:59:22;7.90;63.50
12156;DHT22;6141;49.092;8.516;2024-02-21T02:01:51;7.90;63.40
12156;DHT22;6141;49.092;8.516;2024-02-21T02:04:20;7.90;63.30
12156;DHT22;6141;49.092;8.516;2024-02-21T02:06:49;8.00;62.60
12156;DHT22;6141;49.092;8.516;2024-02-21T02:09:19;8.10;61.40
12156;DHT22;6141;49.092;8.516;2024-02-21T02:11:47;8.20;61.20
12156;DHT22;6141;49.092;8.516;2024-02-21T02:14:16;8.30;59.60
12156;DHT22;6141;49.092;8.516;2024-02-21T02:16:47;8.30;59.00
12156;DHT22;6141;49.092;8.516;2024-02-21T02:19:15;8.20;58.60
12156;DHT22;6141;49.092;8.516;2024-02-21T02:21:46;8.20;58.30
12156;DHT22;6141;49.092;8.516;2024-02-21T02:24:22;8.20;57.70
12156;DHT22;6141;49.092;8.516;2024-02-21T02:26:51;8.30;57.90
12156;DHT22;6141;49.092;8.516;2024-02-21T02:29:20;8.30;56.30
12156;DHT22;6141;49.092;8.516;2024-02-21T02:31:49;8.30;56.30
12156;DHT22;6141;49.092;8.516;2024-02-21T02:34:17;8.20;56.20
12156;DHT22;6141;49.092;8.516;2024-02-21T02:36:45;8.30;56.30
12156;DHT22;6141;49.092;8.516;2024-02-21T02:39:15;8.30;56.30
12156;DHT22;6141;49.092;8.516;2024-02-21T02:41:44;8.10;56.10
12156;DHT22;6141;49.092;8.516;2024-02-21T02:44:13;8.00;56.00
12156;DHT22;6141;49.092;8.516;2024-02-21T02:46:41;8.00;56.00
12156;DHT22;6141;49.092;8.516;2024-02-21T02:49:09;8.00;56.00
12156;DHT22;6141;49.092;8.516;2024-02-21T02:51:41;8.00;56.00
12156;DHT22;6141;49.092;8.516;2024-02-21T02:54:10;8.00;56.00
12156;DHT22;6141;49.092;8.516;2024-02-21T02:56:39;8.00;56.00
12156;DHT22;6141;49.092;8.516;2024-02-21T02:59:08;8.00;56.00
12156;DHT22;6141;49.092;8.516;2024-02-21T03:01:36;7.90;55.90
12156;DHT22;6141;49.092;8.516;2024-02-21T03:04:05;8.00;54.80
12156;DHT22;6141;49.092;8.516;2024-02-21T03:06:33;8.00;55.00
12156;DHT22;6141;49.092;8.516;2024-02-21T03:09:01;8.00;55.00
12156;DHT22;6141;49.092;8.516;2024-02-21T03:11:35;8.00;52.90
12156;DHT22;6141;49.092;8.516;2024-02-21T03:14:09;8.10;52.70
12156;DHT22;6141;49.092;8.516;2024-02-21T03:16:37;8.10;52.00
12156;DHT22;6141;49.092;8.516;2024-02-21T03:19:05;8.20;52.00
12156;DHT22;6141;49.092;8.516;2024-02-21T03:21:34;8.20;50.90
12156;DHT22;6141;49.092;8.516;2024-02-21T03:24:02;8.10;51.40
12156;DHT22;6141;49.092;8.516;2024-02-21T03:26:30;8.00;50.90
12156;DHT22;6141;49.092;8.516;2024-02-21T03:28:59;8.10;51.10
12156;DHT22;6141;49.092;8.516;2024-02-21T03:31:28;8.10;50.10
12156;DHT22;6141;49.092;8.516;2024-02-21T03:33:58;8.10;49.90
12156;DHT22;6141;49.092;8.516;2024-02-21T03:36:26;8.10;50.10
12156;DHT22;6141;49.092;8.516;2024-02-21T03:38:55;8.10;50.10
12156;DHT22;6141;49.092;8.516;2024-02-21T03:41:23;8.10;50.60
12156;DHT22;6141;49.092;8.516;2024-02-21T03:43:51;8.00;50.40
12156;DHT22;6141;49.092;8.516;2024-02-21T03:46:20;8.00;50.50
12156;DHT22;6141;49.092;8.516;2024-02-21T03:48:49;8.00;51.10
12156;DHT22;6141;49.092;8.516;2024-02-21T03:51:18;8.20;50.40
12156;DHT22;6141;49.092;8.516;2024-02-21T03:53:46;8.10;50.60
12156;DHT22;6141;49.092;8.516;2024-02-21T03:56:14;8.10;50.10
12156;DHT22;6141;49.092;8.516;2024-02-21T03:58:42;8.10;49.90
12156;DHT22;6141;49.092;8.516;2024-02-21T04:01:10;8.20;50.20
12156;DHT22;6141;49.092;8.516;2024-02-21T04:03:39;8.10;50.00
12156;DHT22;6141;49.092;8.516;2024-02-21T04:06:09;8.10;50.00
12156;DHT22;6141;49.092;8.516;2024-02-21T04:08:38;8.10;49.90
12156;DHT22;6141;49.092;8.516;2024-02-21T04:11:06;8.00;50.00
12156;DHT22;6141;49.092;8.516;2024-02-21T04:13:34;8.10;50.20
12156;DHT22;6141;49.092;8.516;2024-02-21T04:16:03;8.00;49.90
12156;DHT22;6141;49.092;8.516;2024-02-21T04:18:33;8.00;51.00
12156;DHT22;6141;49.092;8.516;2024-02-21T04:21:01;8.00;51.90
12156;DHT22;6141;49.092;8.516;2024-02-21T04:23:31;8.10;50.90
12156;DHT22;6141;49.092;8.516;2024-02-21T04:25:59;8.20;50.10
12156;DHT22;6141;49.092;8.516;2024-02-21T04:28:27;8.20;49.70
12156;DHT22;6141;49.092;8.516;2024-02-21T04:30:56;8.20;50.70
12156;DHT22;6141;49.092;8.516;2024-02-21T04:33:24;8.20;50.20
12156;DHT22;6141;49.092;8.516;2024-02-21T04:35:52;8.20;50.10
12156;DHT22;6141;49.092;8.516;2024-02-21T04:38:21;8.10;47.60
12156;DHT22;6141;49.092;8.516;2024-02-21T04:40:51;7.90;50.40
12156;DHT22;6141;49.092;8.516;2024-02-21T04:43:19;7.90;51.10
12156;DHT22;6141;49.092;8.516;2024-02-21T04:45:47;7.80;51.70
12156;DHT22;6141;49.092;8.516;2024-02-21T04:48:15;7.70;50.20
12156;DHT22;6141;49.092;8.516;2024-02-21T04:50:45;7.70;51.40
12156;DHT22;6141;49.092;8.516;2024-02-21T04:53:13;7.60;52.20
12156;DHT22;6141;49.092;8.516;2024-02-21T04:55:41;7.60;52.20
12156;DHT22;6141;49.092;8.516;2024-02-21T04:58:11;7.60;52.70
12156;DHT22;6141;49.092;8.516;2024-02-21T05:00:39;7.50;52.50
12156;DHT22;6141;49.092;8.516;2024-02-21T05:03:08;7.50;52.60
12156;DHT22;6141;49.092;8.516;2024-02-21T05:05:36;7.50;52.90
12156;DHT22;6141;49.092;8.516;2024-02-21T05:08:05;7.50;53.10
12156;DHT22;6141;49.092;8.516;2024-02-21T05:10:33;7.40;53.80
12156;DHT22;6141;49.092;8.516;2024-02-21T05:13:01;7.30;54.90
12156;DHT22;6141;49.092;8.516;2024-02-21T05:15:31;7.30;55.30
12156;DHT22;6141;49.092;8.516;2024-02-21T05:17:59;7.20;55.20
12156;DHT22;6141;49.092;8.516;2024-02-21T05:20:28;7.20;55.20
12156;DHT22;6141;49.092;8.516;2024-02-21T05:22:57;7.30;55.40
12156;DHT22;6141;49.092;8.516;2024-02-21T05:25:25;7.20;55.20
12156;DHT22;6141;49.092;8.516;2024-02-21T05:27:53;7.20;55.20
12156;DHT22;6141;49.092;8.516;2024-02-21T05:30:22;7.20;55.20
12156;DHT22;6141;49.092;8.516;2024-02-21T05:32:52;7.20;55.20
12156;DHT22;6141;49.092;8.516;2024-02-21T05:35:25;7.20;55.20
12156;DHT22;6141;49.092;8.516;2024-02-21T05:37:54;7.20;55.60
12156;DHT22;6141;49.092;8.516;2024-02-21T05:40:22;7.30;55.30
12156;DHT22;6141;49.092;8.516;2024-02-21T05:42:50;7.10;55.10
12156;DHT22;6141;49.092;8.516;2024-02-21T05:45:19;7.30;55.30
12156;DHT22;6141;49.092;8.516;2024-02-21T05:47:47;7.30;55.30
12156;DHT22;6141;49.092;8.516;2024-02-21T05:50:16;7.30;55.30
12156;DHT22;6141;49.092;8.516;2024-02-21T05:52:45;7.20;55.20
12156;DHT22;6141;49.092;8.516;2024-02-21T05:55:13;7.20;55.20
12156;DHT22;6141;49.092;8.516;2024-02-21T05:57:41;7.50;53.50
12156;DHT22;6141;49.092;8.516;2024-02-21T06:00:10;7.40;52.10
12156;DHT22;6141;49.092;8.516;2024-02-21T06:02:38;7.50;52.30
12156;DHT22;6141;49.092;8.516;2024-02-21T06:05:07;7.70;50.60
12156;DHT22;6141;49.092;8.516;2024-02-21T06:07:37;7.90;49.50
12156;DHT22;6141;49.092;8.516;2024-02-21T06:10:07;7.70;49.40
12156;DHT22;6141;49.092;8.516;2024-02-21T06:12:36;7.40;50.60
12156;DHT22;6141;49.092;8.516;2024-02-21T06:15:05;7.30;51.70
12156;DHT22;6141;49.092;8.516;2024-02-21T06:17:33;7.20;52.60
12156;DHT22;6141;49.092;8.516;2024-02-21T06:20:02;7.20;53.00
12156;DHT22;6141;49.092;8.516;2024-02-21T06:22:30;7.10;52.70
12156;DHT22;6141;49.092;8.516;2024-02-21T06:25:00;7.20;52.90
12156;DHT22;6141;49.092;8.516;2024-02-21T06:27:29;7.20;53.30
12156;DHT22;6141;49.092;8.516;2024-02-21T06:29:57;7.20;52.80
12156;DHT22;6141;49.092;8.516;2024-02-21T06:32:25;7.50;52.10
12156;DHT22;6141;49.092;8.516;2024-02-21T06:34:53;7.70;50.10
12156;DHT22;6141;49.092;8.516;2024-02-21T06:37:22;8.00;48.60
12156;DHT22;6141;49.092;8.516;2024-02-21T06:39:50;8.20;47.10
12156;DHT22;6141;49.092;8.516;2024-02-21T06:42:19;8.10;45.10
12156;DHT22;6141;49.092;8.516;2024-02-21T06:44:48;8.00;47.50
12156;DHT22;6141;49.092;8.516;2024-02-21T06:47:16;8.20;46.70
12156;DHT22;6141;49.092;8.516;2024-02-21T06:49:48;8.20;46.20
12156;DHT22;6141;49.092;8.516;2024-02-21T06:52:17;8.30;45.80
12156;DHT22;6141;49.092;8.516;2024-02-21T06:54:47;7.90;46.80
12156;DHT22;6141;49.092;8.516;2024-02-21T06:57:15;7.90;48.20
12156;DHT22;6141;49.092;8.516;2024-02-21T06:59:45;7.60;48.90
12156;DHT22;6141;49.092;8.516;2024-02-21T07:02:13;7.40;50.00
12156;DHT22;6141;49.092;8.516;2024-02-21T07:04:42;7.30;51.60
12156;DHT22;6141;49.092;8.516;2024-02-21T07:07:11;7.40;51.60
12156;DHT22;6141;49.092;8.516;2024-02-21T07:09:39;7.70;50.30
12156;DHT22;6141;49.092;8.516;2024-02-21T07:12:07;7.60;50.40
12156;DHT22;6141;49.092;8.516;2024-02-21T07:14:36;7.80;49.30
12156;DHT22;6141;49.092;8.516;2024-02-21T07:17:06;7.90;49.30
12156;DHT22;6141;49.092;8.516;2024-02-21T07:19:34;7.80;49.10
12156;DHT22;6141;49.092;8.516;2024-02-21T07:22:03;7.60;50.10
12156;DHT22;6141;49.092;8.516;2024-02-21T07:24:32;7.60;51.40
12156;DHT22;6141;49.092;8.516;2024-02-21T07:27:00;7.60;51.00
12156;DHT22;6141;49.092;8.516;2024-02-21T07:29:31;7.80;51.00
12156;DHT22;6141;49.092;8.516;2024-02-21T07:32:00;7.90;49.80
12156;DHT22;6141;49.092;8.516;2024-02-21T07:34:29;7.60;49.60
12156;DHT22;6141;49.092;8.516;2024-02-21T07:36:58;7.50;52.20
12156;DHT22;6141;49.092;8.516;2024-02-21T07:39:26;7.60;52.10
12156;DHT22;6141;49.092;8.516;2024-02-21T07:41:54;7.70;51.80
12156;DHT22;6141;49.092;8.516;2024-02-21T07:44:22;7.70;50.80
12156;DHT22;6141;49.092;8.516;2024-02-21T07:46:50;7.80;51.20
12156;DHT22;6141;49.092;8.516;2024-02-21T07:49:18;7.90;50.90
12156;DHT22;6141;49.092;8.516;2024-02-21T07:51:48;8.00;51.10
12156;DHT22;6141;49.092;8.516;2024-02-21T07:54:16;8.10;50.00
12156;DHT22;6141;49.092;8.516;2024-02-21T07:56:47;7.90;50.60
12156;DHT22;6141;49.092;8.516;2024-02-21T07:59:15;7.90;50.10
12156;DHT22;6141;49.092;8.516;2024-02-21T08:01:43;8.00;50.00
12156;DHT22;6141;49.092;8.516;2024-02-21T08:04:12;8.00;49.90
12156;DHT22;6141;49.092;8.516;2024-02-21T08:06:41;8.10;50.00
12156;DHT22;6141;49.092;8.516;2024-02-21T08:09:11;8.10;50.60
12156;DHT22;6141;49.092;8.516;2024-02-21T08:11:39;7.80;49.70
12156;DHT22;6141;49.092;8.516;2024-02-21T08:14:07;7.70;51.10
12156;DHT22;6141;49.092;8.516;2024-02-21T08:16:36;7.70;52.20
12156;DHT22;6141;49.092;8.516;2024-02-21T08:19:04;7.80;50.30
12156;DHT22;6141;49.092;8.516;2024-02-21T08:21:32;7.80;52.00
12156;DHT22;6141;49.092;8.516;2024-02-21T08:24:00;7.80;51.90
12156;DHT22;6141;49.092;8.516;2024-02-21T08:26:30;7.80;50.90
12156;DHT22;6141;49.092;8.516;2024-02-21T08:28:58;7.90;51.70
12156;DHT22;6141;49.092;8.516;2024-02-21T08:31:27;7.90;51.00
12156;DHT22;6141;49.092;8.516;2024-02-21T08:33:58;7.90;51.20
12156;DHT22;6141;49.092;8.516;2024-02-21T08:36:29;8.00;50.30
12156;DHT22;6141;49.092;8.516;2024-02-21T08:38:57;7.80;50.60
12156;DHT22;6141;49.092;8.516;2024-02-21T08:41:25;7.70;51.60
12156;DHT22;6141;49.092;8.516;2024-02-21T08:44:14;7.90;51.10
12156;DHT22;6141;49.092;8.516;2024-02-21T08:46:43;8.00;50.80
12156;DHT22;6141;49.092;8.516;2024-02-21T08:49:11;8.00;50.40
12156;DHT22;6141;49.092;8.516;2024-02-21T08:51:40;8.00;51.50
12156;DHT22;6141;49.092;8.516;2024-02-21T08:54:10;8.10;51.30
12156;DHT22;6141;49.092;8.516;2024-02-21T08:56:40;8.20;50.10
12156;DHT22;6141;49.092;8.516;2024-02-21T08:59:09;8.10;49.40
12156;DHT22;6141;49.092;8.516;2024-02-21T09:01:38;8.20;49.00
12156;DHT22;6141;49.092;8.516;2024-02-21T09:04:07;8.30;49.80
12156;DHT22;6141;49.092;8.516;2024-02-21T09:06:35;8.40;50.40
12156;DHT22;6141;49.092;8.516;2024-02-21T09:09:06;8.40;49.30
12156;DHT22;6141;49.092;8.516;2024-02-21T09:11:35;8.50;50.30
12156;DHT22;6141;49.092;8.516;2024-02-21T09:14:03;8.50;47.30
12156;DHT22;6141;49.092;8.516;2024-02-21T09:16:31;8.50;48.70
12156;DHT22;6141;49.092;8.516;2024-02-21T09:19:01;8.70;47.40
12156;DHT22;6141;49.092;8.516;2024-02-21T09:21:30;8.80;48.60
12156;DHT22;6141;49.092;8.516;2024-02-21T09:23:58;9.00;46.20
12156;DHT22;6141;49.092;8.516;2024-02-21T09:26:27;9.10;45.50
12156;DHT22;6141;49.092;8.516;2024-02-21T09:28:55;9.10;44.80
12156;DHT22;6141;49.092;8.516;2024-02-21T09:31:23;9.20;44.90
12156;DHT22;6141;49.092;8.516;2024-02-21T09:33:51;9.40;43.90
12156;DHT22;6141;49.092;8.516;2024-02-21T09:36:20;9.60;44.10
12156;DHT22;6141;49.092;8.516;2024-02-21T09:38:49;9.80;41.50
12156;DHT22;6141;49.092;8.516;2024-02-21T09:41:18;9.90;37.20
12156;DHT22;6141;49.092;8.516;2024-02-21T09:43:52;10.00;38.40
12156;DHT22;6141;49.092;8.516;2024-02-21T09:46:36;10.00;35.90
12156;DHT22;6141;49.092;8.516;2024-02-21T09:49:13;9.90;39.20
12156;DHT22;6141;49.092;8.516;2024-02-21T09:51:47;10.10;38.60
12156;DHT22;6141;49.092;8.516;2024-02-21T09:54:17;10.10;36.80
12156;DHT22;6141;49.092;8.516;2024-02-21T09:56:47;10.20;37.60
12156;DHT22;6141;49.092;8.516;2024-02-21T09:59:16;10.20;35.40
12156;DHT22;6141;49.092;8.516;2024-02-21T10:01:44;10.30;36.30
12156;DHT22;6141;49.092;8.516;2024-02-21T10:04:13;10.30;34.70
12156;DHT22;6141;49.092;8.516;2024-02-21T10:06:42;10.30;34.40
12156;DHT22;6141;49.092;8.516;2024-02-21T10:09:21;10.50;32.50
12156;DHT22;6141;49.092;8.516;2024-02-21T10:11:51;10.40;32.30
12156;DHT22;6141;49.092;8.516;2024-02-21T10:14:19;10.40;31.70
12156;DHT22;6141;49.092;8.516;2024-02-21T10:16:48;10.30;32.30
12156;DHT22;6141;49.092;8.516;2024-02-21T10:19:17;10.40;33.40
12156;DHT22;6141;49.092;8.516;2024-02-21T10:22:00;10.40;32.40
12156;DHT22;6141;49.092;8.516;2024-02-21T10:24:32;10.40;32.40
12156;DHT22;6141;49.092;8.516;2024-02-21T10:27:02;10.70;34.40
12156;DHT22;6141;49.092;8.516;2024-02-21T10:29:31;10.70;31.30
12156;DHT22;6141;49.092;8.516;2024-02-21T10:32:06;10.60;32.60
12156;DHT22;6141;49.092;8.516;2024-02-21T10:34:35;10.70;31.70
12156;DHT22;6141;49.092;8.516;2024-02-21T10:37:05;10.70;32.70
12156;DHT22;6141;49.092;8.516;2024-02-21T10:39:38;10.50;31.20
12156;DHT22;6141;49.092;8.516;2024-02-21T10:42:07;10.60;31.70
12156;DHT22;6141;49.092;8.516;2024-02-21T10:44:39;10.60;31.10
12156;DHT22;6141;49.092;8.516;2024-02-21T10:47:09;10.60;31.30
12156;DHT22;6141;49.092;8.516;2024-02-21T10:49:40;10.60;30.50
12156;DHT22;6141;49.092;8.516;2024-02-21T10:52:14;10.70;30.70
12156;DHT22;6141;49.092;8.516;2024-02-21T10:54:50;10.70;30.00
12156;DHT22;6141;49.092;8.516;2024-02-21T10:57:21;10.70;30.50
12156;DHT22;6141;49.092;8.516;2024-02-21T10:59:50;10.70;30.60
12156;DHT22;6141;49.092;8.516;2024-02-21T11:02:19;10.70;29.40
12156;DHT22;6141;49.092;8.516;2024-02-21T11:04:48;10.50;30.00
12156;DHT22;6141;49.092;8.516;2024-02-21T11:07:17;10.60;31.00
12156;DHT22;6141;49.092;8.516;2024-02-21T11:09:52;10.60;31.10
12156;DHT22;6141;49.092;8.516;2024-02-21T11:12:23;10.60;31.30
12156;DHT22;6141;49.092;8.516;2024-02-21T11:14:52;10.60;30.20
12156;DHT22;6141;49.092;8.516;2024-02-21T11:17:21;10.70;30.10
12156;DHT22;6141;49.092;8.516;2024-02-21T11:19:53;10.70;27.90
12156;DHT22;6141;49.092;8.516;2024-02-21T11:22:21;10.80;30.40
12156;DHT22;6141;49.092;8.516;2024-02-21T11:24:53;10.80;30.00
12156;DHT22;6141;49.092;8.516;2024-02-21T11:27:23;10.80;29.50
12156;DHT22;6141;49.092;8.516;2024-02-21T11:29:55;10.80;30.40
12156;DHT22;6141;49.092;8.516;2024-02-21T11:32:26;11.00;29.90
12156;DHT22;6141;49.092;8.516;2024-02-21T11:34:57;11.00;30.40
12156;DHT22;6141;49.092;8.516;2024-02-21T11:37:30;11.20;30.10
12156;DHT22;6141;49.092;8.516;2024-02-21T11:40:02;11.20;28.40
12156;DHT22;6141;49.092;8.516;2024-02-21T11:42:31;11.20;28.90
12156;DHT22;6141;49.092;8.516;2024-02-21T11:45:00;11.20;27.30
12156;DHT22;6141;49.092;8.516;2024-02-21T11:47:29;11.20;28.70
12156;DHT22;6141;49.092;8.516;2024-02-21T11:49:57;11.20;28.50
12156;DHT22;6141;49.092;8.516;2024-02-21T11:52:26;11.30;26.70
12156;DHT22;6141;49.092;8.516;2024-02-21T11:54:55;11.20;26.50
12156;DHT22;6141;49.092;8.516;2024-02-21T11:57:33;11.30;27.60
12156;DHT22;6141;49.092;8.516;2024-02-21T12:00:12;11.20;26.90
12156;DHT22;6141;49.092;8.516;2024-02-21T12:02:41;11.20;26.30
12156;DHT22;6141;49.092;8.516;2024-02-21T12:05:09;11.20;26.30
12156;DHT22;6141;49.092;8.516;2024-02-21T12:07:38;11.30;27.20
12156;DHT22;6141;49.092;8.516;2024-02-21T12:10:08;11.30;25.40
12156;DHT22;6141;49.092;8.516;2024-02-21T12:12:39;11.20;25.80
12156;DHT22;6141;49.092;8.516;2024-02-21T12:15:08;11.20;25.60
12156;DHT22;6141;49.092;8.516;2024-02-21T12:17:36;11.30;27.20
12156;DHT22;6141;49.092;8.516;2024-02-21T12:20:08;11.40;24.90
12156;DHT22;6141;49.092;8.516;2024-02-21T12:22:37;11.40;25.40
12156;DHT22;6141;49.092;8.516;2024-02-21T12:25:16;11.60;25.50
12156;DHT22;6141;49.092;8.516;2024-02-21T12:27:47;11.50;23.90
12156;DHT22;6141;49.092;8.516;2024-02-21T12:30:16;11.60;25.60
12156;DHT22;6141;49.092;8.516;2024-02-21T12:32:44;11.70;25.50
12156;DHT22;6141;49.092;8.516;2024-02-21T12:35:12;11.70;24.20
12156;DHT22;6141;49.092;8.516;2024-02-21T12:37:40;11.60;23.60
12156;DHT22;6141;49.092;8.516;2024-02-21T12:40:09;11.60;23.90
12156;DHT22;6141;49.092;8.516;2024-02-21T12:42:41;11.80;23.90
12156;DHT22;6141;49.092;8.516;2024-02-21T12:45:10;11.70;23.80
12156;DHT22;6141;49.092;8.516;2024-02-21T12:47:39;11.80;24.50
12156;DHT22;6141;49.092;8.516;2024-02-21T12:50:08;11.90;24.00
12156;DHT22;6141;49.092;8.516;2024-02-21T12:52:36;11.80;24.60
12156;DHT22;6141;49.092;8.516;2024-02-21T12:55:05;11.70;22.80
12156;DHT22;6141;49.092;8.516;2024-02-21T12:57:34;11.70;23.20
12156;DHT22;6141;49.092;8.516;2024-02-21T13:00:02;11.60;24.20
12156;DHT22;6141;49.092;8.516;2024-02-21T13:02:34;11.60;22.80
12156;DHT22;6141;49.092;8.516;2024-02-21T13:05:03;11.60;22.90
12156;DHT22;6141;49.092;8.516;2024-02-21T13:07:32;11.80;23.00
12156;DHT22;6141;49.092;8.516;2024-02-21T13:10:00;11.90;23.00
12156;DHT22;6141;49.092;8.516;2024-02-21T13:12:28;11.60;22.00
12156;DHT22;6141;49.092;8.516;2024-02-21T13:14:57;11.70;22.80
12156;DHT22;6141;49.092;8.516;2024-02-21T13:17:26;11.70;22.90
12156;DHT22;6141;49.092;8.516;2024-02-21T13:19:58;11.70;24.50
12156;DHT22;6141;49.092;8.516;2024-02-21T13:22:27;11.70;22.80
12156;DHT22;6141;49.092;8.516;2024-02-21T13:24:55;11.70;22.80
12156;DHT22;6141;49.092;8.516;2024-02-21T13:27:25;11.70;22.60
12156;DHT22;6141;49.092;8.516;2024-02-21T13:29:53;11.40;22.60
12156;DHT22;6141;49.092;8.516;2024-02-21T13:32:21;11.30;22.60
12156;DHT22;6141;49.092;8.516;2024-02-21T13:34:49;11.30;23.60
12156;DHT22;6141;49.092;8.516;2024-02-21T13:37:20;11.30;24.00
12156;DHT22;6141;49.092;8.516;2024-02-21T13:39:49;11.30;24.10
12156;DHT22;6141;49.092;8.516;2024-02-21T13:42:17;11.30;24.30
12156;DHT22;6141;49.092;8.516;2024-02-21T13:44:46;11.40;23.90
12156;DHT22;6141;49.092;8.516;2024-02-21T13:47:15;11.40;22.70
12156;DHT22;6141;49.092;8.516;2024-02-21T13:49:43;11.40;23.10
12156;DHT22;6141;49.092;8.516;2024-02-21T13:52:11;11.40;23.40
12156;DHT22;6141;49.092;8.516;2024-02-21T13:54:41;11.40;23.70
12156;DHT22;6141;49.092;8.516;2024-02-21T13:57:09;11.40;23.70
12156;DHT22;6141;49.092;8.516;2024-02-21T13:59:37;11.40;23.50
12156;DHT22;6141;49.092;8.516;2024-02-21T14:02:06;11.40;24.50
12156;DHT22;6141;49.092;8.516;2024-02-21T14:04:35;11.30;22.50
12156;DHT22;6141;49.092;8.516;2024-02-21T14:07:04;11.40;25.00
12156;DHT22;6141;49.092;8.516;2024-02-21T14:09:32;11.50;24.20
12156;DHT22;6141;49.092;8.516;2024-02-21T14:12:02;11.50;23.60
12156;DHT22;6141;49.092;8.516;2024-02-21T14:14:35;11.50;23.10
12156;DHT22;6141;49.092;8.516;2024-02-21T14:17:06;11.60;25.10
12156;DHT22;6141;49.092;8.516;2024-02-21T14:19:34;11.60;23.90
12156;DHT22;6141;49.092;8.516;2024-02-21T14:22:03;11.70;24.40
12156;DHT22;6141;49.092;8.516;2024-02-21T14:24:32;11.70;22.90
12156;DHT22;6141;49.092;8.516;2024-02-21T14:27:04;11.70;23.30
12156;DHT22;6141;49.092;8.516;2024-02-21T14:29:32;11.70;24.40
12156;DHT22;6141;49.092;8.516;2024-02-21T14:32:00;11.70;23.50
12156;DHT22;6141;49.092;8.516;2024-02-21T14:34:29;11.70;23.60
12156;DHT22;6141;49.092;8.516;2024-02-21T14:36:57;11.70;23.80
12156;DHT22;6141;49.092;8.516;2024-02-21T14:39:25;11.80;24.20
12156;DHT22;6141;49.092;8.516;2024-02-21T14:41:54;11.80;24.80
12156;DHT22;6141;49.092;8.516;2024-02-21T14:44:23;11.80;24.20
12156;DHT22;6141;49.092;8.516;2024-02-21T14:46:52;11.60;23.50
12156;DHT22;6141;49.092;8.516;2024-02-21T14:49:20;11.70;24.50
12156;DHT22;6141;49.092;8.516;2024-02-21T14:51:48;11.70;25.30
12156;DHT22;6141;49.092;8.516;2024-02-21T14:54:16;11.70;23.90
12156;DHT22;6141;49.092;8.516;2024-02-21T14:56:44;11.70;24.60
12156;DHT22;6141;49.092;8.516;2024-02-21T14:59:13;11.60;25.20
12156;DHT22;6141;49.092;8.516;2024-02-21T15:01:56;11.70;25.90
12156;DHT22;6141;49.092;8.516;2024-02-21T15:04:25;11.70;25.00
12156;DHT22;6141;49.092;8.516;2024-02-21T15:06:53;11.80;26.00
12156;DHT22;6141;49.092;8.516;2024-02-21T15:09:21;11.80;26.00
12156;DHT22;6141;49.092;8.516;2024-02-21T15:11:49;11.90;26.00
12156;DHT22;6141;49.092;8.516;2024-02-21T15:14:18;11.90;27.20
12156;DHT22;6141;49.092;8.516;2024-02-21T15:16:51;12.10;24.70
12156;DHT22;6141;49.092;8.516;2024-02-21T15:19:21;12.20;24.10
12156;DHT22;6141;49.092;8.516;2024-02-21T15:21:49;12.20;23.50
12156;DHT22;6141;49.092;8.516;2024-02-21T15:24:17;12.30;23.30
12156;DHT22;6141;49.092;8.516;2024-02-21T15:26:45;12.20;24.20
12156;DHT22;6141;49.092;8.516;2024-02-21T15:29:13;12.20;25.10
12156;DHT22;6141;49.092;8.516;2024-02-21T15:31:42;12.30;25.10
12156;DHT22;6141;49.092;8.516;2024-02-21T15:34:13;12.30;24.00
12156;DHT22;6141;49.092;8.516;2024-02-21T15:36:45;12.10;24.60
12156;DHT22;6141;49.092;8.516;2024-02-21T15:39:13;12.00;23.90
12156;DHT22;6141;49.092;8.516;2024-02-21T15:41:42;11.90;25.70
12156;DHT22;6141;49.092;8.516;2024-02-21T15:44:10;12.00;25.40
12156;DHT22;6141;49.092;8.516;2024-02-21T15:46:38;11.90;26.70
12156;DHT22;6141;49.092;8.516;2024-02-21T15:49:07;11.90;27.90
12156;DHT22;6141;49.092;8.516;2024-02-21T15:51:35;11.80;27.60
12156;DHT22;6141;49.092;8.516;2024-02-21T15:54:08;11.70;26.80
12156;DHT22;6141;49.092;8.516;2024-02-21T15:56:36;11.80;26.30
12156;DHT22;6141;49.092;8.516;2024-02-21T15:59:04;11.70;25.80
12156;DHT22;6141;49.092;8.516;2024-02-21T16:01:32;11.90;26.80
12156;DHT22;6141;49.092;8.516;2024-02-21T16:04:02;12.10;24.80
12156;DHT22;6141;49.092;8.516;2024-02-21T16:06:32;12.40;23.40